createdAt,value
2022-10-20T00:02:32.622Z,96.30
2022-10-20T00:06:35.765Z,96.30
2022-10-20T00:10:38.751Z,96.30
2022-10-20T00:14:41.599Z,96.30
2022-10-20T00:18:46.785Z,96.50
2022-10-20T00:22:49.685Z,96.40
2022-10-20T00:26:52.535Z,96.50
2022-10-20T00:30:55.948Z,96.40
2022-10-20T00:35:00.239Z,96.40
2022-10-20T00:39:05.250Z,96.50
2022-10-20T00:43:11.731Z,96.50
2022-10-20T00:47:17.767Z,96.40
2022-10-20T00:51:25.660Z,96.30
2022-10-20T00:55:31.905Z,96.40
2022-10-20T00:59:38.054Z,96.40
2022-10-20T01:03:45.869Z,96.60
2022-10-20T01:07:50.229Z,96.70
2022-10-20T01:12:06.358Z,96.70
2022-10-20T01:16:17.410Z,96.70
2022-10-20T01:20:36.017Z,96.70
2022-10-20T01:24:59.213Z,96.80
2022-10-20T01:29:09.565Z,96.80
2022-10-20T01:33:21.064Z,96.90
2022-10-20T01:37:48.056Z,96.90
2022-10-20T01:41:56.266Z,97.00
2022-10-20T01:46:02.421Z,96.90
2022-10-20T01:50:08.117Z,96.70
2022-10-20T01:54:22.480Z,96.60
2022-10-20T01:58:59.353Z,96.50
2022-10-20T02:03:33.794Z,96.50
2022-10-20T02:07:37.058Z,96.60
2022-10-20T02:11:45.020Z,96.80
2022-10-20T02:15:52.521Z,96.90
2022-10-20T02:19:58.049Z,97.10
2022-10-20T02:24:05.120Z,96.90
2022-10-20T02:28:11.539Z,96.80
2022-10-20T02:32:16.102Z,96.60
2022-10-20T02:36:22.613Z,96.50
2022-10-20T02:40:25.477Z,96.50
2022-10-20T02:44:28.324Z,96.50
2022-10-20T02:48:31.137Z,96.50
2022-10-20T02:52:36.627Z,96.60
2022-10-20T02:56:39.412Z,96.60
2022-10-20T03:00:42.304Z,96.70
2022-10-20T03:04:45.166Z,96.80
2022-10-20T03:08:49.342Z,96.90
2022-10-20T03:12:52.144Z,96.80
2022-10-20T03:16:54.974Z,96.80
2022-10-20T03:20:57.769Z,96.90
2022-10-20T03:25:01.991Z,97.00
2022-10-20T03:29:04.847Z,97.00
2022-10-20T03:33:07.904Z,97.00
2022-10-20T03:37:10.799Z,97.00
2022-10-20T03:41:15.061Z,96.90
2022-10-20T03:45:18.749Z,96.80
2022-10-20T03:49:21.646Z,96.80
2022-10-20T03:53:24.475Z,96.80
2022-10-20T03:57:28.701Z,96.90
2022-10-20T04:01:33.236Z,96.80
2022-10-20T04:05:36.100Z,96.90
2022-10-20T04:09:38.880Z,96.90
2022-10-20T04:13:43.059Z,96.90
2022-10-20T04:17:46.017Z,96.80
2022-10-20T04:21:48.799Z,96.70
2022-10-20T04:25:51.653Z,96.70
2022-10-20T04:29:56.658Z,96.50
2022-10-20T04:33:59.461Z,96.40
2022-10-20T04:38:02.549Z,96.30
2022-10-20T04:42:05.437Z,96.30
2022-10-20T04:46:09.595Z,96.30
2022-10-20T04:50:12.457Z,96.30
2022-10-20T04:54:15.315Z,96.20
2022-10-20T04:58:18.104Z,96.20
2022-10-20T05:02:22.526Z,96.50
2022-10-20T05:06:27.663Z,96.30
2022-10-20T05:10:33.204Z,96.20
2022-10-20T05:14:39.402Z,96.20
2022-10-20T05:18:43.556Z,96.20
2022-10-20T05:22:46.365Z,96.00
2022-10-20T05:26:49.228Z,96.00
2022-10-20T05:30:52.754Z,96.00
2022-10-20T05:34:58.034Z,96.10
2022-10-20T05:39:01.004Z,96.00
2022-10-20T05:43:03.909Z,96.30
2022-10-20T05:47:06.801Z,96.00
2022-10-20T05:51:15.029Z,96.00
2022-10-20T05:55:18.321Z,96.00
2022-10-20T05:59:21.185Z,96.20
2022-10-20T06:03:28.124Z,96.30
2022-10-20T06:07:32.507Z,96.50
2022-10-20T06:11:39.265Z,96.40
2022-10-20T06:15:42.558Z,96.50
2022-10-20T06:19:45.362Z,96.40
2022-10-20T06:23:50.107Z,96.50
2022-10-20T06:27:52.932Z,96.60
2022-10-20T06:31:56.696Z,96.70
2022-10-20T06:36:02.638Z,96.80
2022-10-20T06:40:07.988Z,96.70
2022-10-20T06:44:10.835Z,96.70
2022-10-20T06:48:13.665Z,96.90
2022-10-20T06:52:16.995Z,96.80
2022-10-20T06:56:22.883Z,97.10
2022-10-20T07:00:25.802Z,97.40
2022-10-20T07:04:28.770Z,97.30
2022-10-20T07:08:33.685Z,97.20
2022-10-20T07:12:38.277Z,97.00
2022-10-20T07:16:41.651Z,96.80
2022-10-20T07:20:44.469Z,96.70
2022-10-20T07:24:47.279Z,96.60
2022-10-20T07:28:55.799Z,96.60
2022-10-20T07:32:59.001Z,96.60
2022-10-20T07:37:01.841Z,96.50
2022-10-20T07:41:04.878Z,96.40
2022-10-20T07:45:10.299Z,96.30
2022-10-20T07:53:36.007Z,96.00
2022-10-20T07:57:38.787Z,96.00
2022-10-20T08:01:43.020Z,95.90
2022-10-20T08:05:45.862Z,95.80
2022-10-20T08:09:48.680Z,95.60
2022-10-20T08:13:51.497Z,95.80
2022-10-20T08:17:55.841Z,95.70
2022-10-20T08:21:58.696Z,95.50
2022-10-20T08:26:01.499Z,95.30
2022-10-20T08:30:23.065Z,94.90
2022-10-20T08:34:28.615Z,94.70
2022-10-20T08:38:31.421Z,94.30
2022-10-20T08:42:40.540Z,94.00
2022-10-20T08:46:43.388Z,93.80
2022-10-20T08:50:50.807Z,93.80
2022-10-20T08:54:55.427Z,93.40
2022-10-20T08:58:58.609Z,93.50
2022-10-20T09:03:04.920Z,93.30
2022-10-20T09:07:22.643Z,93.00
2022-10-20T09:11:31.461Z,92.80
2022-10-20T09:15:34.711Z,92.50
2022-10-20T09:19:37.790Z,92.60
2022-10-20T09:23:43.935Z,91.20
2022-10-20T09:27:47.119Z,91.40
2022-10-20T09:31:52.205Z,91.00
2022-10-20T09:35:56.285Z,90.90
2022-10-20T09:40:00.691Z,90.50
2022-10-20T09:44:08.421Z,90.40
2022-10-20T09:48:21.717Z,90.40
2022-10-20T09:52:30.478Z,90.60
2022-10-20T09:56:37.852Z,90.90
2022-10-20T10:00:47.816Z,90.70
2022-10-20T10:04:53.024Z,91.00
2022-10-20T10:08:56.957Z,90.80
2022-10-20T10:13:03.941Z,90.90
2022-10-20T10:17:06.918Z,90.70
2022-10-20T10:21:12.233Z,90.90
2022-10-20T10:25:18.894Z,90.90
2022-10-20T10:29:26.818Z,89.50
2022-10-20T10:33:30.617Z,90.00
2022-10-20T10:37:35.029Z,90.40
2022-10-20T10:41:58.887Z,90.60
2022-10-20T10:46:07.941Z,90.70
2022-10-20T10:50:28.112Z,90.60
2022-10-20T10:54:46.237Z,90.70
2022-10-20T10:58:56.479Z,90.60
2022-10-20T11:03:15.372Z,89.80
2022-10-20T11:07:29.166Z,90.40
2022-10-20T11:11:44.264Z,90.60
2022-10-20T11:15:59.924Z,90.20
2022-10-20T11:20:23.941Z,90.10
2022-10-20T11:24:43.665Z,90.30
2022-10-20T11:28:49.816Z,90.10
2022-10-20T11:32:59.093Z,90.10
2022-10-20T11:37:08.408Z,90.60
2022-10-20T11:41:17.144Z,90.20
2022-10-20T11:45:40.279Z,90.30
2022-10-20T11:49:44.283Z,89.60
2022-10-20T11:54:02.668Z,90.30
2022-10-20T11:58:30.422Z,89.90
2022-10-20T12:02:59.977Z,89.90
2022-10-20T12:07:44.329Z,90.10
2022-10-20T12:11:56.482Z,90.20
2022-10-20T12:15:59.331Z,90.10
2022-10-20T12:20:39.796Z,90.00
2022-10-20T12:24:44.661Z,90.20
2022-10-20T12:28:48.835Z,90.50
2022-10-20T12:33:18.347Z,90.70
2022-10-20T12:37:27.029Z,91.60
2022-10-20T12:41:33.770Z,92.20
2022-10-20T12:45:42.803Z,92.30
2022-10-20T12:49:54.698Z,92.80
2022-10-20T12:54:01.601Z,93.10
2022-10-20T12:58:27.980Z,93.60
2022-10-20T13:02:45.376Z,93.90
2022-10-20T13:06:48.370Z,94.00
2022-10-20T13:10:53.805Z,94.10
2022-10-20T13:14:59.585Z,94.10
2022-10-20T13:19:08.552Z,94.30
2022-10-20T13:23:14.547Z,94.50
2022-10-20T13:27:17.830Z,94.30
2022-10-20T13:31:26.005Z,94.40
2022-10-20T13:35:35.045Z,94.40
2022-10-20T13:39:45.218Z,94.50
2022-10-20T13:43:57.550Z,94.50
2022-10-20T13:48:16.206Z,94.40
2022-10-20T13:52:21.529Z,94.60
2022-10-20T13:56:36.703Z,94.50
2022-10-20T14:00:40.676Z,94.50
2022-10-20T14:04:44.933Z,94.50
2022-10-20T14:12:58.670Z,94.40
2022-10-20T14:17:03.894Z,94.40
2022-10-20T14:21:08.884Z,94.60
2022-10-20T14:25:13.432Z,94.60
2022-10-20T14:29:18.395Z,94.60
2022-10-20T14:33:21.483Z,94.80
2022-10-20T14:37:30.724Z,95.10
2022-10-20T14:41:37.075Z,95.40
2022-10-20T14:45:40.072Z,95.60
2022-10-20T14:49:51.469Z,96.00
2022-10-20T14:54:14.956Z,96.20
2022-10-20T14:58:55.165Z,96.70
2022-10-20T15:03:03.026Z,97.40
2022-10-20T15:07:14.695Z,97.60
2022-10-20T15:11:25.272Z,97.90
2022-10-20T15:15:36.649Z,98.10
2022-10-20T15:19:39.495Z,98.10
2022-10-20T15:23:42.304Z,98.50
2022-10-20T15:27:45.173Z,98.80
2022-10-20T15:31:49.398Z,99.00
2022-10-20T15:35:53.244Z,99.40
2022-10-20T15:39:56.212Z,99.90
2022-10-20T15:44:04.703Z,99.90
2022-10-20T15:48:08.936Z,99.90
2022-10-20T15:52:11.962Z,99.90
2022-10-20T15:56:14.820Z,99.90
2022-10-20T16:00:18.382Z,99.90
2022-10-20T16:04:26.297Z,99.90
2022-10-20T16:08:29.464Z,99.90
2022-10-20T16:12:32.663Z,99.90
2022-10-20T16:16:35.627Z,99.90
2022-10-20T16:20:39.798Z,99.90
2022-10-20T16:24:42.783Z,99.90
2022-10-20T16:28:45.655Z,99.90
2022-10-20T16:32:48.516Z,99.90
2022-10-20T16:36:52.749Z,99.90
2022-10-20T16:40:59.819Z,99.90
2022-10-20T16:45:02.733Z,99.90
2022-10-20T16:49:06.231Z,99.90
2022-10-20T16:53:10.397Z,99.90
2022-10-20T16:57:13.597Z,99.90
2022-10-20T17:01:18.499Z,99.90
2022-10-20T17:05:26.373Z,99.90
2022-10-20T17:09:30.918Z,99.90
2022-10-20T17:13:34.966Z,99.90
2022-10-20T17:17:39.128Z,99.90
2022-10-20T17:21:42.264Z,99.90
2022-10-20T17:25:46.618Z,99.90
2022-10-20T17:29:49.457Z,99.90
2022-10-20T17:33:52.826Z,99.90
2022-10-20T17:37:55.645Z,99.90
2022-10-20T17:41:59.828Z,99.90
2022-10-20T17:46:04.714Z,99.90
2022-10-20T17:54:11.938Z,99.90
2022-10-20T17:58:16.093Z,99.90
2022-10-20T18:02:20.174Z,99.90
2022-10-20T18:06:24.428Z,99.90
2022-10-20T18:10:27.307Z,99.90
2022-10-20T18:14:31.445Z,99.90
2022-10-20T18:18:34.516Z,99.90
2022-10-20T18:22:37.675Z,99.90
2022-10-20T18:26:41.325Z,99.90
2022-10-20T18:30:46.006Z,99.90
2022-10-20T18:34:48.842Z,99.90
2022-10-20T18:38:53.289Z,99.90
2022-10-20T18:42:56.113Z,99.90
2022-10-20T18:47:00.790Z,99.90
2022-10-20T18:51:04.572Z,99.90
2022-10-20T18:55:08.517Z,99.90
2022-10-20T18:59:13.877Z,99.90
2022-10-20T19:03:17.990Z,99.90
2022-10-20T19:07:21.607Z,99.90
2022-10-20T19:11:26.032Z,99.90
2022-10-20T19:15:28.855Z,99.90
2022-10-20T19:19:33.024Z,99.90
2022-10-20T19:23:37.817Z,99.90
2022-10-20T19:27:40.630Z,99.90
2022-10-20T19:31:45.685Z,99.90
2022-10-20T19:35:51.498Z,99.90
2022-10-20T19:39:54.290Z,99.90
2022-10-20T19:43:57.113Z,99.90
2022-10-20T19:47:59.928Z,99.90
2022-10-20T19:52:05.017Z,99.90
2022-10-20T19:56:09.580Z,99.90
2022-10-20T20:00:12.766Z,99.90
2022-10-20T20:04:15.594Z,99.90
2022-10-20T20:08:19.736Z,99.90
2022-10-20T20:12:22.551Z,99.90
2022-10-20T20:16:26.473Z,99.90
2022-10-20T20:20:29.420Z,99.90
2022-10-20T20:24:33.814Z,99.90
2022-10-20T20:28:36.898Z,99.90
2022-10-20T20:32:41.402Z,99.90
2022-10-20T20:36:48.558Z,99.90
2022-10-20T20:40:53.013Z,99.90
2022-10-20T20:44:55.777Z,99.90
2022-10-20T20:48:58.696Z,99.90
2022-10-20T20:53:01.487Z,99.90
2022-10-20T20:57:07.917Z,99.90
2022-10-20T21:01:13.947Z,99.90
2022-10-20T21:05:16.945Z,99.90
2022-10-20T21:09:20.067Z,99.90
2022-10-20T21:13:24.282Z,99.90
2022-10-20T21:17:27.317Z,99.90
2022-10-20T21:21:32.231Z,99.90
2022-10-20T21:25:35.073Z,99.90
2022-10-20T21:29:44.138Z,99.90
2022-10-20T21:33:52.181Z,99.90
2022-10-20T21:37:55.093Z,99.90
2022-10-20T21:41:57.948Z,99.90
2022-10-20T21:46:18.211Z,99.90
2022-10-20T21:50:21.163Z,99.90
2022-10-20T21:54:25.892Z,99.90
2022-10-20T21:58:28.839Z,99.90
2022-10-20T22:02:32.991Z,99.90
2022-10-20T22:06:38.495Z,99.90
2022-10-20T22:10:41.433Z,99.90
2022-10-20T22:14:46.483Z,99.90
2022-10-20T22:18:55.417Z,99.90
2022-10-20T22:22:58.236Z,99.90
2022-10-20T22:27:01.044Z,99.90
2022-10-20T22:31:04.483Z,99.90
2022-10-20T22:35:09.805Z,99.90
2022-10-20T22:43:16.161Z,99.90
2022-10-20T22:47:18.954Z,99.90
2022-10-20T22:51:23.137Z,99.90
2022-10-20T22:55:26.878Z,99.90
2022-10-20T22:59:30.522Z,99.90
2022-10-20T23:03:33.329Z,99.90
2022-10-20T23:07:37.739Z,99.90
2022-10-20T23:11:40.633Z,99.90
2022-10-20T23:15:50.955Z,99.90
2022-10-20T23:19:53.771Z,99.90
2022-10-20T23:23:57.984Z,99.90
2022-10-20T23:28:00.803Z,99.90
2022-10-20T23:32:03.663Z,99.90
2022-10-20T23:36:06.960Z,99.90
2022-10-20T23:40:12.447Z,99.90
2022-10-20T23:44:15.331Z,99.90
2022-10-20T23:48:18.174Z,99.90
2022-10-20T23:52:21.003Z,99.90
2022-10-20T23:56:25.427Z,99.90
